• Join FlightAware (Why Join?)
  • Login
  • US Flag 
11:01PM EDT


 

Airport Tracker/Info


-or-


 

Live Flight TrackerFlight Track Log ✈ SWA2236 ✈ 2013年07月 9日 ✈ KABQ - KOAK

Flight Track Log - Related Links

Times and Time Zones

All times are in EDT time to prevent confusion due to time zone crossing. See the SWA2236 flight status page for this flight to view local times or setup timezone preferences in your user account.

Time Position Orientation Groundspeed Altitude Reporting Facility
EDT Latitude Longitude Course Direction KTS MPH feet Rate Location/Type
09:19AM 35.0608 -106.5553 49° Northeast 193 222 7,100  Level Albuquerque Center
09:20AM 35.0956 -106.6047 311° West 206 237 8,400 1,440 Climbing Albuquerque Center
09:21AM 35.0944 -106.6919 269° West 242 278 10,100 2,040 Climbing Albuquerque Center
09:22AM 35.0933 -106.7942 269° West 283 326 12,600 2,520 Climbing Albuquerque Center
09:23AM 35.1003 -106.9214 274° West 320 368 15,300 2,160 Climbing Albuquerque Center
09:24AM 35.1169 -107.0439 279° West 358 412 17,100 1,860 Climbing Albuquerque Center
09:25AM 35.1333 -107.1764 279° West 387 445 19,200 2,100 Climbing Albuquerque Center
09:26AM 35.1486 -107.3183 278° West 418 481 21,400 2,160 Climbing Albuquerque Center
09:27AM 35.1647 -107.4600 278° West 423 487 23,600 1,860 Climbing Albuquerque Center
09:29AM 35.1814 -107.6133 278° West 431 496 25,200 1,620 Climbing Albuquerque Center
09:30AM 35.2022 -107.7806 279° West 442 509 26,900 1,560 Climbing Albuquerque Center
09:31AM 35.2167 -107.9300 277° West 454 522 28,400 1,380 Climbing Albuquerque Center
09:32AM 35.2331 -108.0778 278° West 456 525 29,800 1,620 Climbing Albuquerque Center
09:33AM 35.2531 -108.2531 278° West 462 532 31,800 1,680 Climbing Albuquerque Center
09:34AM 35.2686 -108.4028 277° West 462 532 33,300 1,440 Climbing Albuquerque Center
09:35AM 35.2847 -108.5506 278° West 460 529 34,800 1,680 Climbing Albuquerque Center
09:36AM 35.3036 -108.7225 278° West 455 524 36,800 1,560 Climbing Albuquerque Center
09:37AM 35.3186 -108.8644 277° West 444 511 38,100 600 Climbing Albuquerque Center
09:38AM 35.3325 -109.0061 277° West 438 504 38,100  Level Albuquerque Center
09:39AM 35.3494 -109.1700 277° West 433 498 38,100  Level Albuquerque Center
09:40AM 35.3642 -109.3108 277° West 433 498 38,100  Level Albuquerque Center
09:41AM 35.3786 -109.4503 277° West 431 496 38,100  Level Albuquerque Center
09:42AM 35.3931 -109.6153 276° West 433 498 38,100  Level Albuquerque Center
09:43AM 35.4061 -109.7553 277° West 433 498 38,100  Level Albuquerque Center
09:44AM 35.4203 -109.8936 277° West 430 495 38,100  Level Albuquerque Center
09:45AM 35.4336 -110.0564 276° West 429 494 38,100  Level Albuquerque Center
09:46AM 35.4456 -110.1953 276° West 428 493 38,100  Level Albuquerque Center
09:47AM 35.4600 -110.3569 276° West 427 491 38,100  Level Albuquerque Center
09:48AM 35.4733 -110.4969 277° West 429 494 38,100  Level Albuquerque Center
09:49AM 35.4856 -110.6375 276° West 431 496 38,100  Level Albuquerque Center
09:50AM 35.4986 -110.7978 276° West 427 491 38,100  Level Albuquerque Center
09:51AM 35.5097 -110.9353 276° West 423 487 38,100  Level Albuquerque Center
09:52AM 35.5250 -111.0972 277° West 426 490 38,100  Level Albuquerque Center
09:53AM 35.5367 -111.2353 276° West 425 489 38,100  Level Albuquerque Center
09:54AM 35.5483 -111.3736 276° West 425 489 38,100 -60 Level Albuquerque Center
09:55AM 35.5606 -111.5228 276° West 433 498 38,000 -60 Descending Albuquerque Center
09:56AM 35.5725 -111.6658 276° West 428 493 38,000  Level Albuquerque Center
09:57AM 35.5828 -111.8089 275° West 425 489 38,000  Level Albuquerque Center
09:58AM 35.6044 -111.9786 279° West 424 488 38,000  Level Albuquerque Center
09:59AM 35.6261 -112.1208 281° West 425 489 38,000  Level Albuquerque Center
10:00AM 35.6469 -112.2622 280° West 425 489 38,000  Level Albuquerque Center
10:01AM 35.6686 -112.4019 281° West 423 487 38,000  Level Albuquerque Center
10:02AM 35.6886 -112.5442 280° West 425 489 38,000  Level Albuquerque Center
10:03AM 35.7086 -112.6853 280° West 426 490 38,000  Level Albuquerque Center
10:04AM 35.7333 -112.8561 280° West 428 493 38,000  Level Albuquerque Center
10:05AM 35.7536 -112.9992 280° West 430 495 38,000  Level Albuquerque Center
10:07AM 35.7808 -113.2011 279° West 431 496 38,000  Level Los Angeles Center
10:08AM 35.7997 -113.3450 279° West 430 495 38,000  Level Los Angeles Center
10:09AM 35.8189 -113.4892 279° West 428 493 38,000  Level Los Angeles Center
10:10AM 35.8411 -113.6575 279° West 425 489 38,000  Level Los Angeles Center
10:11AM 35.8606 -113.8011 280° West 425 489 38,000  Level Los Angeles Center
10:12AM 35.8792 -113.9456 279° West 426 490 38,000  Level Los Angeles Center
10:13AM 35.8986 -114.0894 280° West 425 489 38,000  Level Los Angeles Center
10:14AM 35.9167 -114.2331 279° West 423 487 38,000  Level Los Angeles Center
10:15AM 35.9358 -114.3769 279° West 426 490 38,000  Level Los Angeles Center
10:16AM 35.9583 -114.5486 279° West 422 486 38,000  Level Los Angeles Center
10:17AM 35.9753 -114.6925 278° West 424 488 38,000  Level Los Angeles Center
10:18AM 35.9939 -114.8394 279° West 427 491 38,000  Level Los Angeles Center
10:19AM 36.0444 -114.9722 295° West 433 498 38,000  Level Los Angeles Center
10:20AM 36.1017 -115.1047 298° West 437 503 38,000  Level Los Angeles Center
10:21AM 36.1589 -115.2356 298° West 434 499 38,000  Level Los Angeles Center
10:22AM 36.2167 -115.3669 299° West 433 498 38,000  Level Los Angeles Center
10:23AM 36.2861 -115.5289 298° West 438 504 38,100  Climbing Los Angeles Center
10:24AM 36.3378 -115.6514 298° West 448 516 38,100 -60 Level Los Angeles Center
10:25AM 36.3964 -115.7883 298° West 451 519 38,000  Descending Los Angeles Center
10:26AM 36.4658 -115.9531 298° West 448 516 38,100  Climbing Los Angeles Center
10:27AM 36.5217 -116.0878 297° West 442 509 38,000  Descending Los Angeles Center
10:28AM 36.5775 -116.2181 298° West 430 495 38,100  Climbing Los Angeles Center
10:29AM 36.6322 -116.3519 297° West 432 497 38,100  Level Los Angeles Center
10:30AM 36.6875 -116.4842 298° West 431 496 38,100  Level Los Angeles Center
10:31AM 36.7436 -116.6156 298° West 429 494 38,100  Level Los Angeles Center
10:32AM 36.8008 -116.7464 299° West 429 494 38,100  Level Los Angeles Center
10:34AM 36.9244 -116.8569 324° Northwest 451 519 38,100  Level Los Angeles Center
10:35AM 37.0306 -116.9411 328° Northwest 456 525 38,100  Level Los Angeles Center
10:36AM 37.1344 -117.0300 326° Northwest 455 524 38,100 -60 Level Los Angeles Center
10:37AM 37.2397 -117.1169 327° Northwest 452 520 38,000  Descending Los Angeles Center
10:38AM 37.3447 -117.2061 326° Northwest 455 524 38,100  Climbing Los Angeles Center
10:39AM 37.3961 -117.3394 296° West 432 497 38,000  Descending Los Angeles Center
10:40AM 37.4194 -117.4839 282° West 422 486 38,100  Climbing Los Angeles Center
10:41AM 37.4419 -117.6319 281° West 426 490 38,100 -60 Level Los Angeles Center
10:42AM 37.4642 -117.7775 281° West 430 495 38,000 -60 Descending Oakland Center
10:43AM 37.4861 -117.9256 281° West 429 494 38,000  Level Oakland Center
10:44AM 37.5081 -118.0731 281° West 427 491 38,000  Level Oakland Center
10:45AM 37.5306 -118.2200 281° West 426 490 38,100  Climbing Oakland Center
10:46AM 37.5567 -118.3969 281° West 427 491 38,100  Level Oakland Center
10:47AM 37.5775 -118.5450 280° West 427 491 38,100  Level Oakland Center
10:48AM 37.5989 -118.6917 280° West 426 490 38,100 -60 Level Oakland Center
10:49AM 37.6194 -118.8336 280° West 426 490 38,000 -480 Descending Oakland Center
10:50AM 37.6394 -118.9792 280° West 423 487 37,200 -840 Descending Oakland Center
10:51AM 37.6603 -119.1275 280° West 429 494 36,300 -600 Descending Oakland Center
10:52AM 37.6803 -119.2742 280° West 424 488 36,000 -180 Descending Oakland Center
10:53AM 37.7006 -119.4200 280° West 423 487 36,000  Level Oakland Center
10:54AM 37.7211 -119.5661 280° West 422 486 36,000  Level Oakland Center
10:55AM 37.7403 -119.7136 279° West 425 489 36,000  Level Oakland Center
10:56AM 37.7653 -119.8889 280° West 423 487 36,000 -120 Level Oakland Center
10:57AM 37.7842 -120.0356 279° West 422 486 35,800 -1,320 Descending Oakland Center
10:58AM 37.8031 -120.1803 279° West 420 483 33,400 -2,280 Descending Oakland Center
10:59AM 37.8211 -120.3258 279° West 419 482 31,200 -2,100 Descending Oakland Center
11:00AM 37.8400 -120.4631 280° West 404 465 29,200 -2,220 Descending Oakland Center
11:01AM 37.8569 -120.5994 279° West 395 455 26,700 -3,000 Descending Oakland Center
11:02AM 37.8667 -120.6833 278° West 402 463 24,500 -3,420 Descending Northern Cal TRACON
11:03AM 37.8500 -120.8333 262° West 407 468 21,400 -3,300 Descending Northern Cal TRACON
11:04AM 37.8500 -120.9667 270° West 410 472 18,300 -3,240 Descending Northern Cal TRACON
11:05AM 37.8333 -121.1000 261° West 409 471 15,300 -2,400 Descending Northern Cal TRACON
11:06AM 37.8167 -121.2333 261° West 431 496 13,500 -1,320 Descending Northern Cal TRACON
11:06AM 37.7667 -121.3167 233° Southwest 318 366 12,800 -780 Descending Northern Cal TRACON
11:07AM 37.7000 -121.3500 202° Southwest 259 298 12,100 -600 Descending Northern Cal TRACON
11:08AM 37.6333 -121.3667 191° South 240 276 11,700 -840 Descending Northern Cal TRACON
11:09AM 37.5667 -121.3833 191° South 236 272 10,500 -1,200 Descending Northern Cal TRACON
11:10AM 37.5667 -121.4500 270° West 250 288 9,500 -1,140 Descending Northern Cal TRACON
11:11AM 37.5667 -121.5333 270° West 240 276 8,400 -1,080 Descending Northern Cal TRACON
11:12AM 37.5667 -121.6167 270° West 233 268 7,400 -1,080 Descending Northern Cal TRACON
11:13AM 37.5667 -121.6833 270° West 231 266 6,300 -720 Descending Northern Cal TRACON
11:14AM 37.5667 -121.7667 270° West 226 260 6,000 -240 Descending Northern Cal TRACON
11:15AM 37.5500 -121.8500 256° West 224 258 5,900 -660 Descending Northern Cal TRACON
11:16AM 37.5500 -121.9333 270° West 225 259 4,700 -900 Descending Northern Cal TRACON
11:17AM 37.5667 -122.0000 288° West 232 267 4,100 -720 Descending Northern Cal TRACON
11:18AM 37.6000 -122.0667 302° West 227 261 3,300 -1,140 Descending Northern Cal TRACON
11:19AM 37.6333 -122.1167 310° West 218 251 1,900 -1,260 Descending Northern Cal TRACON
11:20AM 37.6667 -122.1667 310° West 166 191 1,000 -900 Descending Northern Cal TRACON
11:21AM 37.7000 -122.2000 322° Northwest 137 158 300 -720 Descending Northern Cal TRACON